sensor_id;sensor_type;location;lat;lon;timestamp;P1;durP1;ratioP1;P2;durP2;ratioP2
4047;SDS011;2038;51.728;6.674;2023-04-15T00:02:15;10.70;;;7.97;;
4047;SDS011;2038;51.728;6.674;2023-04-15T00:04:43;10.13;;;8.27;;
4047;SDS011;2038;51.728;6.674;2023-04-15T00:07:11;10.23;;;7.80;;
4047;SDS011;2038;51.728;6.674;2023-04-15T00:09:37;9.67;;;7.30;;
4047;SDS011;2038;51.728;6.674;2023-04-15T00:12:04;12.90;;;9.30;;
4047;SDS011;2038;51.728;6.674;2023-04-15T00:14:33;18.77;;;7.33;;
4047;SDS011;2038;51.728;6.674;2023-04-15T00:17:02;10.50;;;8.67;;
4047;SDS011;2038;51.728;6.674;2023-04-15T00:19:29;12.67;;;7.97;;
4047;SDS011;2038;51.728;6.674;2023-04-15T00:21:56;12.10;;;8.10;;
4047;SDS011;2038;51.728;6.674;2023-04-15T00:24:22;10.20;;;7.87;;
4047;SDS011;2038;51.728;6.674;2023-04-15T00:26:49;10.27;;;8.33;;
4047;SDS011;2038;51.728;6.674;2023-04-15T00:29:15;12.80;;;7.73;;
4047;SDS011;2038;51.728;6.674;2023-04-15T00:31:41;13.00;;;8.30;;
4047;SDS011;2038;51.728;6.674;2023-04-15T00:34:07;13.90;;;8.47;;
4047;SDS011;2038;51.728;6.674;2023-04-15T00:36:33;13.13;;;8.20;;
4047;SDS011;2038;51.728;6.674;2023-04-15T00:39:00;9.33;;;7.90;;
4047;SDS011;2038;51.728;6.674;2023-04-15T00:41:27;10.10;;;8.00;;
4047;SDS011;2038;51.728;6.674;2023-04-15T00:43:53;12.03;;;7.90;;
4047;SDS011;2038;51.728;6.674;2023-04-15T00:46:20;12.37;;;7.10;;
4047;SDS011;2038;51.728;6.674;2023-04-15T00:48:47;9.47;;;8.00;;
4047;SDS011;2038;51.728;6.674;2023-04-15T00:51:15;11.93;;;7.30;;
4047;SDS011;2038;51.728;6.674;2023-04-15T00:53:41;12.90;;;8.70;;
4047;SDS011;2038;51.728;6.674;2023-04-15T00:56:08;14.10;;;9.40;;
4047;SDS011;2038;51.728;6.674;2023-04-15T00:58:34;9.93;;;8.90;;
4047;SDS011;2038;51.728;6.674;2023-04-15T01:01:01;15.07;;;8.90;;
4047;SDS011;2038;51.728;6.674;2023-04-15T01:03:28;12.13;;;9.00;;
4047;SDS011;2038;51.728;6.674;2023-04-15T01:05:55;8.73;;;7.70;;
4047;SDS011;2038;51.728;6.674;2023-04-15T01:08:27;11.43;;;8.07;;
4047;SDS011;2038;51.728;6.674;2023-04-15T01:10:55;12.67;;;9.03;;
4047;SDS011;2038;51.728;6.674;2023-04-15T01:13:26;11.63;;;8.20;;
4047;SDS011;2038;51.728;6.674;2023-04-15T01:15:52;11.27;;;8.27;;
4047;SDS011;2038;51.728;6.674;2023-04-15T01:18:21;14.97;;;9.10;;
4047;SDS011;2038;51.728;6.674;2023-04-15T01:20:48;10.17;;;8.20;;
4047;SDS011;2038;51.728;6.674;2023-04-15T01:23:14;12.47;;;8.47;;
4047;SDS011;2038;51.728;6.674;2023-04-15T01:25:41;17.20;;;9.47;;
4047;SDS011;2038;51.728;6.674;2023-04-15T01:28:09;11.37;;;9.00;;
4047;SDS011;2038;51.728;6.674;2023-04-15T01:30:35;13.07;;;8.70;;
4047;SDS011;2038;51.728;6.674;2023-04-15T01:33:02;15.13;;;8.70;;
4047;SDS011;2038;51.728;6.674;2023-04-15T01:35:28;10.93;;;8.30;;
4047;SDS011;2038;51.728;6.674;2023-04-15T01:37:54;11.10;;;8.70;;
4047;SDS011;2038;51.728;6.674;2023-04-15T01:40:33;12.43;;;7.53;;
4047;SDS011;2038;51.728;6.674;2023-04-15T01:43:00;12.70;;;10.20;;
4047;SDS011;2038;51.728;6.674;2023-04-15T01:45:27;11.80;;;9.10;;
4047;SDS011;2038;51.728;6.674;2023-04-15T01:47:54;10.57;;;8.57;;
4047;SDS011;2038;51.728;6.674;2023-04-15T01:50:20;11.13;;;9.00;;
4047;SDS011;2038;51.728;6.674;2023-04-15T01:52:46;15.40;;;8.27;;
4047;SDS011;2038;51.728;6.674;2023-04-15T01:55:13;10.27;;;7.93;;
4047;SDS011;2038;51.728;6.674;2023-04-15T01:57:40;9.93;;;8.90;;
4047;SDS011;2038;51.728;6.674;2023-04-15T02:00:06;8.60;;;7.40;;
4047;SDS011;2038;51.728;6.674;2023-04-15T02:02:33;13.00;;;9.27;;
4047;SDS011;2038;51.728;6.674;2023-04-15T02:04:59;12.00;;;8.83;;
4047;SDS011;2038;51.728;6.674;2023-04-15T02:07:26;12.90;;;8.93;;
4047;SDS011;2038;51.728;6.674;2023-04-15T02:09:56;13.50;;;9.87;;
4047;SDS011;2038;51.728;6.674;2023-04-15T02:12:22;13.97;;;10.23;;
4047;SDS011;2038;51.728;6.674;2023-04-15T02:14:48;14.60;;;9.80;;
4047;SDS011;2038;51.728;6.674;2023-04-15T02:17:14;14.87;;;9.37;;
4047;SDS011;2038;51.728;6.674;2023-04-15T02:19:41;16.40;;;10.30;;
4047;SDS011;2038;51.728;6.674;2023-04-15T02:22:07;15.87;;;10.50;;
4047;SDS011;2038;51.728;6.674;2023-04-15T02:24:35;11.57;;;9.40;;
4047;SDS011;2038;51.728;6.674;2023-04-15T02:27:01;11.40;;;10.07;;
4047;SDS011;2038;51.728;6.674;2023-04-15T02:29:27;13.20;;;10.50;;
4047;SDS011;2038;51.728;6.674;2023-04-15T02:31:56;14.67;;;10.43;;
4047;SDS011;2038;51.728;6.674;2023-04-15T02:34:22;15.07;;;11.23;;
4047;SDS011;2038;51.728;6.674;2023-04-15T02:36:48;15.13;;;12.00;;
4047;SDS011;2038;51.728;6.674;2023-04-15T02:39:18;16.60;;;11.33;;
4047;SDS011;2038;51.728;6.674;2023-04-15T02:41:45;15.23;;;11.53;;
4047;SDS011;2038;51.728;6.674;2023-04-15T02:44:15;17.07;;;11.67;;
4047;SDS011;2038;51.728;6.674;2023-04-15T02:46:45;16.50;;;12.40;;
4047;SDS011;2038;51.728;6.674;2023-04-15T02:49:16;16.13;;;11.13;;
4047;SDS011;2038;51.728;6.674;2023-04-15T02:51:43;11.93;;;9.53;;
4047;SDS011;2038;51.728;6.674;2023-04-15T02:54:13;15.90;;;10.70;;
4047;SDS011;2038;51.728;6.674;2023-04-15T02:56:43;18.87;;;12.03;;
4047;SDS011;2038;51.728;6.674;2023-04-15T02:59:13;16.00;;;11.03;;
4047;SDS011;2038;51.728;6.674;2023-04-15T03:01:39;13.60;;;10.90;;
4047;SDS011;2038;51.728;6.674;2023-04-15T03:04:06;13.10;;;9.80;;
4047;SDS011;2038;51.728;6.674;2023-04-15T03:06:33;13.83;;;10.37;;
4047;SDS011;2038;51.728;6.674;2023-04-15T03:08:59;16.67;;;11.57;;
4047;SDS011;2038;51.728;6.674;2023-04-15T03:11:30;14.90;;;11.20;;
4047;SDS011;2038;51.728;6.674;2023-04-15T03:13:57;12.50;;;10.53;;
4047;SDS011;2038;51.728;6.674;2023-04-15T03:16:23;16.47;;;10.63;;
4047;SDS011;2038;51.728;6.674;2023-04-15T03:18:49;15.30;;;12.00;;
4047;SDS011;2038;51.728;6.674;2023-04-15T03:21:16;16.17;;;12.03;;
4047;SDS011;2038;51.728;6.674;2023-04-15T03:23:43;17.23;;;9.90;;
4047;SDS011;2038;51.728;6.674;2023-04-15T03:26:11;18.10;;;12.50;;
4047;SDS011;2038;51.728;6.674;2023-04-15T03:28:51;12.70;;;10.57;;
4047;SDS011;2038;51.728;6.674;2023-04-15T03:31:17;14.30;;;10.87;;
4047;SDS011;2038;51.728;6.674;2023-04-15T03:33:43;14.23;;;11.47;;
4047;SDS011;2038;51.728;6.674;2023-04-15T03:36:09;15.60;;;11.07;;
4047;SDS011;2038;51.728;6.674;2023-04-15T03:38:35;17.53;;;11.13;;
4047;SDS011;2038;51.728;6.674;2023-04-15T03:41:02;13.70;;;10.93;;
4047;SDS011;2038;51.728;6.674;2023-04-15T03:43:29;13.57;;;11.10;;
4047;SDS011;2038;51.728;6.674;2023-04-15T03:45:55;20.27;;;13.03;;
4047;SDS011;2038;51.728;6.674;2023-04-15T03:48:21;13.97;;;10.47;;
4047;SDS011;2038;51.728;6.674;2023-04-15T03:50:47;14.80;;;11.03;;
4047;SDS011;2038;51.728;6.674;2023-04-15T03:53:14;13.20;;;10.47;;
4047;SDS011;2038;51.728;6.674;2023-04-15T03:55:40;17.27;;;11.30;;
4047;SDS011;2038;51.728;6.674;2023-04-15T03:58:06;15.03;;;10.70;;
4047;SDS011;2038;51.728;6.674;2023-04-15T04:00:36;14.87;;;11.73;;
4047;SDS011;2038;51.728;6.674;2023-04-15T04:03:03;15.83;;;11.30;;
4047;SDS011;2038;51.728;6.674;2023-04-15T04:05:30;14.17;;;10.57;;
4047;SDS011;2038;51.728;6.674;2023-04-15T04:07:56;14.90;;;11.73;;
4047;SDS011;2038;51.728;6.674;2023-04-15T04:10:22;16.93;;;12.37;;
4047;SDS011;2038;51.728;6.674;2023-04-15T04:12:48;17.00;;;12.07;;
4047;SDS011;2038;51.728;6.674;2023-04-15T04:15:15;17.10;;;11.30;;
4047;SDS011;2038;51.728;6.674;2023-04-15T04:17:41;15.20;;;12.40;;
4047;SDS011;2038;51.728;6.674;2023-04-15T04:20:07;14.53;;;11.43;;
4047;SDS011;2038;51.728;6.674;2023-04-15T04:22:40;16.50;;;11.70;;
4047;SDS011;2038;51.728;6.674;2023-04-15T04:25:07;18.20;;;11.73;;
4047;SDS011;2038;51.728;6.674;2023-04-15T04:27:34;15.03;;;11.73;;
4047;SDS011;2038;51.728;6.674;2023-04-15T04:30:01;15.03;;;12.00;;
4047;SDS011;2038;51.728;6.674;2023-04-15T04:32:27;17.37;;;12.73;;
4047;SDS011;2038;51.728;6.674;2023-04-15T04:34:54;19.30;;;12.10;;
4047;SDS011;2038;51.728;6.674;2023-04-15T04:37:20;16.40;;;14.03;;
4047;SDS011;2038;51.728;6.674;2023-04-15T04:39:47;26.13;;;12.50;;
4047;SDS011;2038;51.728;6.674;2023-04-15T04:42:13;17.33;;;12.80;;
4047;SDS011;2038;51.728;6.674;2023-04-15T04:44:40;17.87;;;12.83;;
4047;SDS011;2038;51.728;6.674;2023-04-15T04:47:06;15.87;;;13.03;;
4047;SDS011;2038;51.728;6.674;2023-04-15T04:49:32;21.43;;;13.70;;
4047;SDS011;2038;51.728;6.674;2023-04-15T04:51:58;18.17;;;14.17;;
4047;SDS011;2038;51.728;6.674;2023-04-15T04:54:25;18.80;;;13.03;;
4047;SDS011;2038;51.728;6.674;2023-04-15T04:56:51;21.57;;;13.67;;
4047;SDS011;2038;51.728;6.674;2023-04-15T04:59:17;17.00;;;12.70;;
4047;SDS011;2038;51.728;6.674;2023-04-15T05:01:44;18.40;;;14.43;;
4047;SDS011;2038;51.728;6.674;2023-04-15T05:04:10;23.10;;;16.37;;
4047;SDS011;2038;51.728;6.674;2023-04-15T05:06:36;19.63;;;14.10;;
4047;SDS011;2038;51.728;6.674;2023-04-15T05:09:03;23.30;;;14.90;;
4047;SDS011;2038;51.728;6.674;2023-04-15T05:11:29;25.07;;;15.90;;
4047;SDS011;2038;51.728;6.674;2023-04-15T05:13:55;21.63;;;15.80;;
4047;SDS011;2038;51.728;6.674;2023-04-15T05:16:23;22.63;;;15.10;;
4047;SDS011;2038;51.728;6.674;2023-04-15T05:18:50;21.70;;;15.30;;
4047;SDS011;2038;51.728;6.674;2023-04-15T05:21:16;21.20;;;15.43;;
4047;SDS011;2038;51.728;6.674;2023-04-15T05:23:43;28.67;;;18.13;;
4047;SDS011;2038;51.728;6.674;2023-04-15T05:26:09;23.30;;;15.70;;
4047;SDS011;2038;51.728;6.674;2023-04-15T05:28:35;20.80;;;15.60;;
4047;SDS011;2038;51.728;6.674;2023-04-15T05:31:02;20.77;;;14.90;;
4047;SDS011;2038;51.728;6.674;2023-04-15T05:33:28;27.27;;;15.80;;
4047;SDS011;2038;51.728;6.674;2023-04-15T05:35:54;22.00;;;15.60;;
4047;SDS011;2038;51.728;6.674;2023-04-15T05:38:20;24.03;;;17.20;;
4047;SDS011;2038;51.728;6.674;2023-04-15T05:40:47;21.30;;;15.27;;
4047;SDS011;2038;51.728;6.674;2023-04-15T05:43:13;20.70;;;15.23;;
4047;SDS011;2038;51.728;6.674;2023-04-15T05:45:40;28.90;;;18.17;;
4047;SDS011;2038;51.728;6.674;2023-04-15T05:48:06;27.03;;;18.63;;
4047;SDS011;2038;51.728;6.674;2023-04-15T05:50:32;26.43;;;18.27;;
4047;SDS011;2038;51.728;6.674;2023-04-15T05:52:59;26.30;;;16.60;;
4047;SDS011;2038;51.728;6.674;2023-04-15T05:55:26;26.50;;;16.60;;
4047;SDS011;2038;51.728;6.674;2023-04-15T05:57:52;23.60;;;16.60;;
4047;SDS011;2038;51.728;6.674;2023-04-15T06:00:18;21.30;;;17.07;;
4047;SDS011;2038;51.728;6.674;2023-04-15T06:02:45;24.47;;;17.00;;
4047;SDS011;2038;51.728;6.674;2023-04-15T06:05:11;24.20;;;17.73;;
4047;SDS011;2038;51.728;6.674;2023-04-15T06:07:38;23.90;;;17.27;;
4047;SDS011;2038;51.728;6.674;2023-04-15T06:10:05;25.40;;;19.27;;
4047;SDS011;2038;51.728;6.674;2023-04-15T06:12:32;24.80;;;16.60;;
4047;SDS011;2038;51.728;6.674;2023-04-15T06:14:58;27.33;;;15.87;;
4047;SDS011;2038;51.728;6.674;2023-04-15T06:17:24;26.60;;;17.73;;
4047;SDS011;2038;51.728;6.674;2023-04-15T06:19:51;25.80;;;18.00;;
4047;SDS011;2038;51.728;6.674;2023-04-15T06:22:21;27.40;;;17.40;;
4047;SDS011;2038;51.728;6.674;2023-04-15T06:24:48;25.60;;;17.60;;
4047;SDS011;2038;51.728;6.674;2023-04-15T06:27:15;22.77;;;15.70;;
4047;SDS011;2038;51.728;6.674;2023-04-15T06:29:42;34.60;;;17.93;;
4047;SDS011;2038;51.728;6.674;2023-04-15T06:32:08;22.00;;;15.63;;
4047;SDS011;2038;51.728;6.674;2023-04-15T06:34:35;23.10;;;14.80;;
4047;SDS011;2038;51.728;6.674;2023-04-15T06:37:02;25.10;;;16.67;;
4047;SDS011;2038;51.728;6.674;2023-04-15T06:39:28;23.20;;;16.30;;
4047;SDS011;2038;51.728;6.674;2023-04-15T06:41:54;20.97;;;14.90;;
4047;SDS011;2038;51.728;6.674;2023-04-15T06:44:20;23.73;;;14.87;;
4047;SDS011;2038;51.728;6.674;2023-04-15T06:46:46;21.27;;;15.47;;
4047;SDS011;2038;51.728;6.674;2023-04-15T06:49:13;24.20;;;15.80;;
4047;SDS011;2038;51.728;6.674;2023-04-15T06:51:39;21.87;;;13.87;;
4047;SDS011;2038;51.728;6.674;2023-04-15T06:54:06;21.33;;;13.80;;
4047;SDS011;2038;51.728;6.674;2023-04-15T06:56:33;25.33;;;15.57;;
4047;SDS011;2038;51.728;6.674;2023-04-15T06:58:59;22.00;;;15.80;;
4047;SDS011;2038;51.728;6.674;2023-04-15T07:01:26;19.07;;;14.00;;
4047;SDS011;2038;51.728;6.674;2023-04-15T07:03:52;19.90;;;14.40;;
4047;SDS011;2038;51.728;6.674;2023-04-15T07:06:18;24.10;;;13.73;;
4047;SDS011;2038;51.728;6.674;2023-04-15T07:08:45;16.90;;;12.90;;
4047;SDS011;2038;51.728;6.674;2023-04-15T07:11:12;18.87;;;14.13;;
4047;SDS011;2038;51.728;6.674;2023-04-15T07:13:38;16.23;;;12.80;;
4047;SDS011;2038;51.728;6.674;2023-04-15T07:16:04;17.93;;;12.60;;
4047;SDS011;2038;51.728;6.674;2023-04-15T07:18:30;17.87;;;13.00;;
4047;SDS011;2038;51.728;6.674;2023-04-15T07:20:56;17.63;;;14.40;;
4047;SDS011;2038;51.728;6.674;2023-04-15T07:23:23;18.10;;;12.90;;
4047;SDS011;2038;51.728;6.674;2023-04-15T07:25:49;19.10;;;11.83;;
4047;SDS011;2038;51.728;6.674;2023-04-15T07:28:16;20.17;;;13.90;;
4047;SDS011;2038;51.728;6.674;2023-04-15T07:30:42;18.43;;;13.33;;
4047;SDS011;2038;51.728;6.674;2023-04-15T07:33:08;17.33;;;11.70;;
4047;SDS011;2038;51.728;6.674;2023-04-15T07:35:34;16.37;;;12.00;;
4047;SDS011;2038;51.728;6.674;2023-04-15T07:38:01;17.20;;;12.10;;
4047;SDS011;2038;51.728;6.674;2023-04-15T07:40:27;14.90;;;11.33;;
4047;SDS011;2038;51.728;6.674;2023-04-15T07:42:54;16.20;;;11.83;;
4047;SDS011;2038;51.728;6.674;2023-04-15T07:45:22;21.07;;;14.00;;
4047;SDS011;2038;51.728;6.674;2023-04-15T07:47:48;19.10;;;13.20;;
4047;SDS011;2038;51.728;6.674;2023-04-15T07:50:15;19.53;;;13.33;;
4047;SDS011;2038;51.728;6.674;2023-04-15T07:52:43;13.90;;;11.00;;
4047;SDS011;2038;51.728;6.674;2023-04-15T07:55:10;16.87;;;11.40;;
4047;SDS011;2038;51.728;6.674;2023-04-15T07:57:36;17.93;;;11.37;;
4047;SDS011;2038;51.728;6.674;2023-04-15T08:00:03;10.97;;;9.47;;
4047;SDS011;2038;51.728;6.674;2023-04-15T08:02:31;12.30;;;9.30;;
4047;SDS011;2038;51.728;6.674;2023-04-15T08:04:58;9.87;;;8.00;;
4047;SDS011;2038;51.728;6.674;2023-04-15T08:07:27;9.37;;;8.13;;
4047;SDS011;2038;51.728;6.674;2023-04-15T08:09:53;12.90;;;9.10;;
4047;SDS011;2038;51.728;6.674;2023-04-15T08:12:19;14.53;;;10.23;;
4047;SDS011;2038;51.728;6.674;2023-04-15T08:14:46;11.90;;;9.13;;
4047;SDS011;2038;51.728;6.674;2023-04-15T08:17:12;10.70;;;8.37;;
4047;SDS011;2038;51.728;6.674;2023-04-15T08:19:39;13.60;;;9.00;;
4047;SDS011;2038;51.728;6.674;2023-04-15T08:22:06;11.43;;;8.77;;
4047;SDS011;2038;51.728;6.674;2023-04-15T08:24:32;9.27;;;7.60;;
4047;SDS011;2038;51.728;6.674;2023-04-15T08:26:59;10.47;;;7.23;;
4047;SDS011;2038;51.728;6.674;2023-04-15T08:29:28;10.87;;;6.70;;
4047;SDS011;2038;51.728;6.674;2023-04-15T08:31:54;11.97;;;7.17;;
4047;SDS011;2038;51.728;6.674;2023-04-15T08:34:20;9.73;;;7.10;;
4047;SDS011;2038;51.728;6.674;2023-04-15T08:36:47;10.60;;;8.00;;
4047;SDS011;2038;51.728;6.674;2023-04-15T08:39:14;9.30;;;7.33;;
4047;SDS011;2038;51.728;6.674;2023-04-15T08:41:45;10.30;;;8.77;;
4047;SDS011;2038;51.728;6.674;2023-04-15T08:44:20;10.57;;;7.60;;
4047;SDS011;2038;51.728;6.674;2023-04-15T08:46:49;10.17;;;7.40;;
4047;SDS011;2038;51.728;6.674;2023-04-15T08:49:17;11.50;;;9.20;;
4047;SDS011;2038;51.728;6.674;2023-04-15T08:51:46;12.43;;;9.07;;
4047;SDS011;2038;51.728;6.674;2023-04-15T08:54:13;9.90;;;8.00;;
4047;SDS011;2038;51.728;6.674;2023-04-15T08:56:40;14.33;;;9.13;;
4047;SDS011;2038;51.728;6.674;2023-04-15T08:59:07;10.40;;;8.00;;
4047;SDS011;2038;51.728;6.674;2023-04-15T09:01:35;9.27;;;7.53;;
4047;SDS011;2038;51.728;6.674;2023-04-15T09:04:02;11.83;;;8.33;;
4047;SDS011;2038;51.728;6.674;2023-04-15T09:06:31;10.20;;;7.77;;
4047;SDS011;2038;51.728;6.674;2023-04-15T09:08:58;12.20;;;7.53;;
4047;SDS011;2038;51.728;6.674;2023-04-15T09:11:24;11.40;;;8.50;;
4047;SDS011;2038;51.728;6.674;2023-04-15T09:13:51;11.43;;;8.33;;
4047;SDS011;2038;51.728;6.674;2023-04-15T09:16:17;11.07;;;7.93;;
4047;SDS011;2038;51.728;6.674;2023-04-15T09:18:44;13.07;;;9.63;;
4047;SDS011;2038;51.728;6.674;2023-04-15T09:21:11;10.60;;;6.70;;
4047;SDS011;2038;51.728;6.674;2023-04-15T09:23:40;9.90;;;6.87;;
4047;SDS011;2038;51.728;6.674;2023-04-15T09:26:33;10.03;;;6.80;;
4047;SDS011;2038;51.728;6.674;2023-04-15T09:29:05;12.03;;;8.30;;
4047;SDS011;2038;51.728;6.674;2023-04-15T09:31:34;10.17;;;8.40;;
4047;SDS011;2038;51.728;6.674;2023-04-15T09:34:01;12.37;;;8.07;;
4047;SDS011;2038;51.728;6.674;2023-04-15T09:36:27;11.70;;;8.93;;
4047;SDS011;2038;51.728;6.674;2023-04-15T09:38:55;12.40;;;9.40;;
4047;SDS011;2038;51.728;6.674;2023-04-15T09:41:26;13.83;;;9.43;;
4047;SDS011;2038;51.728;6.674;2023-04-15T09:43:53;14.80;;;8.13;;
4047;SDS011;2038;51.728;6.674;2023-04-15T09:46:19;12.20;;;8.77;;
4047;SDS011;2038;51.728;6.674;2023-04-15T09:49:08;11.40;;;6.80;;
4047;SDS011;2038;51.728;6.674;2023-04-15T09:51:36;9.13;;;8.03;;
4047;SDS011;2038;51.728;6.674;2023-04-15T09:54:03;9.07;;;6.83;;
4047;SDS011;2038;51.728;6.674;2023-04-15T09:56:36;9.27;;;7.80;;
4047;SDS011;2038;51.728;6.674;2023-04-15T09:59:06;9.27;;;7.57;;
4047;SDS011;2038;51.728;6.674;2023-04-15T10:01:33;9.30;;;7.33;;
4047;SDS011;2038;51.728;6.674;2023-04-15T10:04:03;7.60;;;6.10;;
4047;SDS011;2038;51.728;6.674;2023-04-15T10:06:30;8.50;;;7.03;;
4047;SDS011;2038;51.728;6.674;2023-04-15T10:08:58;8.20;;;6.60;;
4047;SDS011;2038;51.728;6.674;2023-04-15T10:11:27;12.40;;;8.13;;
4047;SDS011;2038;51.728;6.674;2023-04-15T10:13:55;12.70;;;7.40;;
4047;SDS011;2038;51.728;6.674;2023-04-15T10:16:22;10.10;;;7.70;;
4047;SDS011;2038;51.728;6.674;2023-04-15T10:18:55;12.00;;;8.00;;
4047;SDS011;2038;51.728;6.674;2023-04-15T10:21:26;8.57;;;7.43;;
4047;SDS011;2038;51.728;6.674;2023-04-15T10:23:54;8.47;;;6.93;;
4047;SDS011;2038;51.728;6.674;2023-04-15T10:26:22;8.53;;;5.80;;
4047;SDS011;2038;51.728;6.674;2023-04-15T10:28:50;9.10;;;7.97;;
4047;SDS011;2038;51.728;6.674;2023-04-15T10:31:17;9.13;;;7.00;;
4047;SDS011;2038;51.728;6.674;2023-04-15T10:33:44;8.70;;;7.17;;
4047;SDS011;2038;51.728;6.674;2023-04-15T10:36:12;9.20;;;7.00;;
4047;SDS011;2038;51.728;6.674;2023-04-15T10:38:43;8.43;;;6.33;;
4047;SDS011;2038;51.728;6.674;2023-04-15T10:41:28;12.70;;;6.10;;
4047;SDS011;2038;51.728;6.674;2023-04-15T10:44:01;6.90;;;5.90;;
4047;SDS011;2038;51.728;6.674;2023-04-15T10:49:13;6.10;;;5.50;;
4047;SDS011;2038;51.728;6.674;2023-04-15T10:51:51;8.60;;;5.73;;
4047;SDS011;2038;51.728;6.674;2023-04-15T10:56:52;8.57;;;6.20;;
4047;SDS011;2038;51.728;6.674;2023-04-15T11:02:37;6.63;;;4.80;;
4047;SDS011;2038;51.728;6.674;2023-04-15T11:05:12;6.90;;;5.27;;
4047;SDS011;2038;51.728;6.674;2023-04-15T11:13:01;5.30;;;4.13;;
4047;SDS011;2038;51.728;6.674;2023-04-15T11:18:17;7.40;;;5.67;;
4047;SDS011;2038;51.728;6.674;2023-04-15T11:20:48;7.67;;;5.53;;
4047;SDS011;2038;51.728;6.674;2023-04-15T11:23:33;7.20;;;6.13;;
4047;SDS011;2038;51.728;6.674;2023-04-15T11:26:10;10.50;;;5.93;;
4047;SDS011;2038;51.728;6.674;2023-04-15T11:28:38;7.77;;;5.87;;
4047;SDS011;2038;51.728;6.674;2023-04-15T11:31:16;6.93;;;5.17;;
4047;SDS011;2038;51.728;6.674;2023-04-15T11:34:05;6.17;;;5.00;;
4047;SDS011;2038;51.728;6.674;2023-04-15T11:36:31;9.33;;;5.30;;
4047;SDS011;2038;51.728;6.674;2023-04-15T11:38:57;6.20;;;4.80;;
4047;SDS011;2038;51.728;6.674;2023-04-15T11:41:24;9.93;;;5.47;;
4047;SDS011;2038;51.728;6.674;2023-04-15T11:43:50;6.53;;;4.40;;
4047;SDS011;2038;51.728;6.674;2023-04-15T11:46:17;4.90;;;4.33;;
4047;SDS011;2038;51.728;6.674;2023-04-15T11:48:44;6.57;;;4.60;;
4047;SDS011;2038;51.728;6.674;2023-04-15T11:51:11;5.73;;;4.00;;
4047;SDS011;2038;51.728;6.674;2023-04-15T11:53:39;5.63;;;4.20;;
4047;SDS011;2038;51.728;6.674;2023-04-15T11:56:17;5.37;;;4.67;;
4047;SDS011;2038;51.728;6.674;2023-04-15T11:58:47;6.30;;;4.73;;
4047;SDS011;2038;51.728;6.674;2023-04-15T12:01:18;7.30;;;5.73;;
4047;SDS011;2038;51.728;6.674;2023-04-15T12:03:45;6.67;;;5.37;;
4047;SDS011;2038;51.728;6.674;2023-04-15T12:06:19;6.13;;;4.93;;
4047;SDS011;2038;51.728;6.674;2023-04-15T12:11:27;10.00;;;5.67;;
4047;SDS011;2038;51.728;6.674;2023-04-15T12:14:31;6.37;;;4.70;;
4047;SDS011;2038;51.728;6.674;2023-04-15T12:17:06;6.73;;;4.47;;
4047;SDS011;2038;51.728;6.674;2023-04-15T12:19:41;7.47;;;4.17;;
4047;SDS011;2038;51.728;6.674;2023-04-15T12:22:13;5.37;;;3.70;;
4047;SDS011;2038;51.728;6.674;2023-04-15T12:24:41;7.70;;;4.20;;
4047;SDS011;2038;51.728;6.674;2023-04-15T12:27:12;7.20;;;4.13;;
4047;SDS011;2038;51.728;6.674;2023-04-15T12:29:40;4.80;;;3.87;;
4047;SDS011;2038;51.728;6.674;2023-04-15T12:32:08;3.30;;;3.00;;
4047;SDS011;2038;51.728;6.674;2023-04-15T12:34:43;5.90;;;4.10;;
4047;SDS011;2038;51.728;6.674;2023-04-15T12:37:14;10.33;;;6.13;;
4047;SDS011;2038;51.728;6.674;2023-04-15T12:39:42;5.40;;;4.90;;
4047;SDS011;2038;51.728;6.674;2023-04-15T12:42:11;6.60;;;5.03;;
4047;SDS011;2038;51.728;6.674;2023-04-15T12:44:39;7.57;;;4.67;;
4047;SDS011;2038;51.728;6.674;2023-04-15T12:47:06;6.10;;;4.17;;
4047;SDS011;2038;51.728;6.674;2023-04-15T12:49:33;6.40;;;5.07;;
4047;SDS011;2038;51.728;6.674;2023-04-15T12:52:01;5.30;;;4.47;;
4047;SDS011;2038;51.728;6.674;2023-04-15T12:54:28;9.57;;;4.90;;
4047;SDS011;2038;51.728;6.674;2023-04-15T12:56:55;6.33;;;4.97;;
4047;SDS011;2038;51.728;6.674;2023-04-15T12:59:23;4.07;;;3.63;;
4047;SDS011;2038;51.728;6.674;2023-04-15T13:01:49;6.33;;;4.33;;
4047;SDS011;2038;51.728;6.674;2023-04-15T13:04:17;4.50;;;4.10;;
4047;SDS011;2038;51.728;6.674;2023-04-15T13:06:44;6.70;;;4.27;;
4047;SDS011;2038;51.728;6.674;2023-04-15T13:09:10;4.07;;;3.43;;
4047;SDS011;2038;51.728;6.674;2023-04-15T13:11:37;7.83;;;4.43;;
4047;SDS011;2038;51.728;6.674;2023-04-15T13:14:03;4.17;;;3.30;;
4047;SDS011;2038;51.728;6.674;2023-04-15T13:16:33;3.73;;;3.43;;
4047;SDS011;2038;51.728;6.674;2023-04-15T13:19:00;5.60;;;4.10;;
4047;SDS011;2038;51.728;6.674;2023-04-15T13:21:28;6.60;;;3.17;;
4047;SDS011;2038;51.728;6.674;2023-04-15T13:23:58;4.73;;;3.50;;
4047;SDS011;2038;51.728;6.674;2023-04-15T13:26:25;5.33;;;2.70;;
4047;SDS011;2038;51.728;6.674;2023-04-15T13:28:52;4.87;;;3.60;;
4047;SDS011;2038;51.728;6.674;2023-04-15T13:31:18;4.50;;;3.33;;
4047;SDS011;2038;51.728;6.674;2023-04-15T13:33:44;4.00;;;3.10;;
4047;SDS011;2038;51.728;6.674;2023-04-15T13:36:10;5.13;;;3.70;;
4047;SDS011;2038;51.728;6.674;2023-04-15T13:38:36;3.90;;;3.43;;
4047;SDS011;2038;51.728;6.674;2023-04-15T13:41:03;5.17;;;3.10;;
4047;SDS011;2038;51.728;6.674;2023-04-15T13:43:29;3.87;;;3.27;;
4047;SDS011;2038;51.728;6.674;2023-04-15T13:45:57;9.83;;;3.67;;
4047;SDS011;2038;51.728;6.674;2023-04-15T13:48:23;4.00;;;3.43;;
4047;SDS011;2038;51.728;6.674;2023-04-15T13:50:49;4.70;;;3.33;;
4047;SDS011;2038;51.728;6.674;2023-04-15T13:53:16;6.67;;;3.83;;
4047;SDS011;2038;51.728;6.674;2023-04-15T13:55:42;6.00;;;3.67;;
4047;SDS011;2038;51.728;6.674;2023-04-15T13:58:08;2.80;;;2.60;;
4047;SDS011;2038;51.728;6.674;2023-04-15T14:00:35;4.30;;;3.10;;
4047;SDS011;2038;51.728;6.674;2023-04-15T14:03:01;4.00;;;2.90;;
4047;SDS011;2038;51.728;6.674;2023-04-15T14:05:28;4.50;;;2.90;;
4047;SDS011;2038;51.728;6.674;2023-04-15T14:07:55;9.83;;;3.67;;
4047;SDS011;2038;51.728;6.674;2023-04-15T14:10:21;3.47;;;3.07;;
4047;SDS011;2038;51.728;6.674;2023-04-15T14:12:47;3.60;;;3.30;;
4047;SDS011;2038;51.728;6.674;2023-04-15T14:15:13;3.73;;;2.97;;
4047;SDS011;2038;51.728;6.674;2023-04-15T14:17:40;4.20;;;3.50;;
4047;SDS011;2038;51.728;6.674;2023-04-15T14:20:06;3.57;;;3.23;;
4047;SDS011;2038;51.728;6.674;2023-04-15T14:22:33;3.50;;;3.03;;
4047;SDS011;2038;51.728;6.674;2023-04-15T14:25:00;3.23;;;2.93;;
4047;SDS011;2038;51.728;6.674;2023-04-15T14:27:26;3.70;;;3.10;;
4047;SDS011;2038;51.728;6.674;2023-04-15T14:29:53;4.80;;;3.23;;
4047;SDS011;2038;51.728;6.674;2023-04-15T14:32:19;4.07;;;3.60;;
4047;SDS011;2038;51.728;6.674;2023-04-15T14:34:45;3.30;;;3.00;;
4047;SDS011;2038;51.728;6.674;2023-04-15T14:37:11;3.37;;;3.07;;
4047;SDS011;2038;51.728;6.674;2023-04-15T14:39:38;4.30;;;3.70;;
4047;SDS011;2038;51.728;6.674;2023-04-15T14:42:04;3.70;;;2.87;;
4047;SDS011;2038;51.728;6.674;2023-04-15T14:44:31;3.73;;;3.30;;
4047;SDS011;2038;51.728;6.674;2023-04-15T14:46:57;5.13;;;3.70;;
4047;SDS011;2038;51.728;6.674;2023-04-15T14:49:23;4.40;;;3.27;;
4047;SDS011;2038;51.728;6.674;2023-04-15T14:51:50;6.23;;;3.03;;
4047;SDS011;2038;51.728;6.674;2023-04-15T14:54:16;3.60;;;2.90;;
4047;SDS011;2038;51.728;6.674;2023-04-15T14:56:42;7.23;;;4.53;;
4047;SDS011;2038;51.728;6.674;2023-04-15T14:59:08;5.07;;;3.40;;
4047;SDS011;2038;51.728;6.674;2023-04-15T15:01:34;4.93;;;2.93;;
4047;SDS011;2038;51.728;6.674;2023-04-15T15:04:01;4.20;;;3.33;;
4047;SDS011;2038;51.728;6.674;2023-04-15T15:06:27;4.33;;;3.03;;
4047;SDS011;2038;51.728;6.674;2023-04-15T15:08:54;6.53;;;3.23;;
4047;SDS011;2038;51.728;6.674;2023-04-15T15:11:20;4.60;;;3.13;;
4047;SDS011;2038;51.728;6.674;2023-04-15T15:13:46;2.87;;;2.57;;
4047;SDS011;2038;51.728;6.674;2023-04-15T15:16:12;4.10;;;2.70;;
4047;SDS011;2038;51.728;6.674;2023-04-15T15:18:39;6.70;;;4.60;;
4047;SDS011;2038;51.728;6.674;2023-04-15T15:21:05;4.60;;;3.50;;
4047;SDS011;2038;51.728;6.674;2023-04-15T15:23:31;10.40;;;3.70;;